Kapitan Rogozin — UAZN — position and weather

sailwx.info

Track history (hours):
 
Tides and Currents Weather Stations Pressure Air Temp Water Temp Dewpoint Dewpoint Depression Visibility Wind Speed Wind Dir Waves Ship Positions

Kapitan Rogozin

Last reported at 2017-Sep-27 01:27 UTC. Time now 2017-Oct-17 13:15 UTC.
Position N 70°10' E 032°02'.
Warning: this ship's position is 20 days out of date.

Length 55 m; draft 4.1 m.

Type: Fishing. MMSI: 273510600.

Date/timePositionNaut miles runAvg speedWind from/ knotsBaromVisibWave heightAir tempDewpointWater temp
2017-Sep-27 01:27N 70°10' E 032°02'1 1.5
2017-Sep-27 00:58N 70°10' E 031°59'2 5.2
2017-Sep-27 00:30N 70°10' E 031°52'3 6.4
2017-Sep-27 00:00N 70°09' E 031°43'4 6.9
2017-Sep-26 23:30N 70°08' E 031°33'4 7.4
2017-Sep-26 22:59N 70°07' E 031°23'4 7.6
2017-Sep-26 22:30N 70°05' E 031°14'4 7.6
2017-Sep-26 22:00N 70°03' E 031°04'4 7.4
2017-Sep-26 21:30N 70°01' E 030°54'4 7.6
2017-Sep-26 21:00N 69°60' E 030°44'4 8.0
2017-Sep-26 20:30N 69°58' E 030°34'4 8.7
2017-Sep-26 20:00N 69°56' E 030°23'4 9.1
2017-Sep-26 19:30N 69°54' E 030°11'5 9.2
2017-Sep-26 19:00N 69°49' E 030°07'5 9.6
2017-Sep-26 18:30N 69°45' E 030°04'1 1.9
2017-Sep-26 17:59N 69°44' E 030°04'0 0.0
2017-Sep-26 17:28N 69°44' E 030°04'0 0.0
2017-Sep-26 16:58N 69°44' E 030°04'0 0.0
2017-Sep-26 16:25N 69°44' E 030°04'0 0.0
2017-Sep-26 15:58N 69°44' E 030°04'0 0.0
2017-Sep-26 15:30N 69°44' E 030°04'0 0.0
2017-Sep-26 14:59N 69°44' E 030°04'0 0.0
2017-Sep-26 14:30N 69°44' E 030°04'0 0.0
2017-Sep-26 14:00N 69°44' E 030°04'0 0.0
2017-Sep-26 13:30N 69°44' E 030°04'0 0.0
2017-Sep-26 13:00N 69°44' E 030°04'0 0.0
2017-Sep-26 12:30N 69°44' E 030°04'1 1.5
2017-Sep-26 12:00N 69°44' E 030°06'4 8.7
2017-Sep-26 11:30N 69°49' E 030°06'4 8.9
2017-Sep-26 11:00N 69°53' E 030°08'3 6.4
2017-Sep-26 10:30N 69°54' E 030°16'5 9.1
2017-Sep-26 10:00N 69°55' E 030°29'5 9.2
2017-Sep-26 09:30N 69°57' E 030°42'4 9.0
2017-Sep-26 09:00N 69°58' E 030°55'5 9.3
2017-Sep-26 08:30N 69°59' E 031°08'510.1
2017-Sep-26 08:00N 69°59' E 031°23'67 6.9
2017-Sep-25 22:20N 69°03' E 033°04'2 6.2
2017-Sep-25 22:00N 69°01' E 033°03'3 6.1
2017-Sep-25 21:31N 68°58' E 033°02'1 2.4
2017-Sep-25 20:59N 68°57' E 033°01'0 0.1
2017-Sep-25 20:30N 68°57' E 033°01'0 0.0
2017-Sep-25 19:58N 68°57' E 033°01'0 0.0
2017-Sep-25 19:30N 68°57' E 033°01'0 0.0
2017-Sep-25 18:58N 68°57' E 033°01'0 0.0
2017-Sep-25 18:26N 68°57' E 033°01'0 0.0
2017-Sep-25 17:58N 68°57' E 033°01'0 0.0
2017-Sep-25 17:30N 68°57' E 033°01'0 0.1
2017-Sep-25 16:58N 68°57' E 033°01'0 0.0
2017-Sep-25 16:26N 68°57' E 033°01'0 0.0
2017-Sep-25 15:59N 68°57' E 033°01'0 0.0
2017-Sep-25 15:29N 68°57' E 033°01'1 1.1
2017-Sep-25 14:59N 68°57' E 033°00'0 0.0
2017-Sep-25 14:27N 68°57' E 033°00'0 0.0
2017-Sep-25 13:55N 68°57' E 033°00'0 0.0
2017-Sep-25 13:30N 68°57' E 033°00'0 0.0
2017-Sep-25 12:57N 68°57' E 033°00'0 0.0
2017-Sep-25 12:28N 68°57' E 033°00'0 0.0
2017-Sep-25 11:58N 68°57' E 033°00'0 0.0
2017-Sep-25 11:30N 68°57' E 033°00'0 0.0
2017-Sep-25 10:58N 68°57' E 033°00'0 0.0
2017-Sep-25 10:28N 68°57' E 033°00'0 0.0
2017-Sep-25 09:54N 68°57' E 033°00'0 0.0
2017-Sep-25 09:28N 68°57' E 033°00'0 0.0
2017-Sep-25 08:59N 68°57' E 033°00'0 0.0
2017-Sep-25 08:29N 68°57' E 033°00'0 0.0
2017-Sep-25 07:58N 68°57' E 033°00'0 0.0
2017-Sep-25 07:26N 68°57' E 033°00'0 0.0
2017-Sep-25 07:00N 68°57' E 033°00'0 0.0
2017-Sep-25 06:30N 68°57' E 033°00'0 0.0
2017-Sep-25 05:57N 68°57' E 033°00'0 0.0
2017-Sep-25 05:30N 68°57' E 033°00'0 0.0
2017-Sep-25 04:59N 68°57' E 033°00'0 0.0
2017-Sep-25 04:28N 68°57' E 033°00'0 0.0
2017-Sep-25 03:58N 68°57' E 033°00'0 0.0
2017-Sep-25 03:30N 68°57' E 033°00'0 0.0
2017-Sep-25 02:58N 68°57' E 033°00'0 0.0
2017-Sep-25 02:31N 68°57' E 033°00'0 0.0
2017-Sep-25 01:59N 68°57' E 033°00'0 0.0
2017-Sep-25 01:24N 68°57' E 033°00'0 0.0
2017-Sep-25 01:01N 68°57' E 033°00'0 0.0
2017-Sep-25 00:30N 68°57' E 033°00'0 0.0
2017-Sep-25 00:00N 68°57' E 033°00'0 0.0
2017-Sep-24 23:22N 68°57' E 033°00'0 0.0
2017-Sep-24 22:59N 68°57' E 033°00'0 0.0
2017-Sep-24 22:28N 68°57' E 033°00'0 0.0
2017-Sep-24 21:59N 68°57' E 033°00'0 0.0
2017-Sep-24 21:24N 68°57' E 033°00'0 0.0
2017-Sep-24 21:00N 68°57' E 033°00'0 0.0
2017-Sep-24 20:22N 68°57' E 033°00'0 0.0
2017-Sep-24 19:58N 68°57' E 033°00'0 0.0
2017-Sep-24 19:29N 68°57' E 033°00'0 0.0
2017-Sep-24 18:58N 68°57' E 033°00'0 0.0
2017-Sep-24 18:28N 68°57' E 033°00'0 0.0
2017-Sep-24 18:00N 68°57' E 033°00'0 0.0
2017-Sep-24 17:30N 68°57' E 033°00'0 0.0
2017-Sep-24 16:59N 68°57' E 033°00'0 0.0
2017-Sep-24 16:28N 68°57' E 033°00'0 0.0
2017-Sep-24 16:00N 68°57' E 033°00'0 0.0
2017-Sep-24 15:29N 68°57' E 033°00'0 0.0
2017-Sep-24 15:00N 68°57' E 033°00'0 0.0
2017-Sep-24 14:30N 68°57' E 033°00'0 0.0
2017-Sep-24 13:57N 68°57' E 033°00'0 0.0
2017-Sep-24 13:26N 68°57' E 033°00'0 0.0
2017-Sep-24 12:59N 68°57' E 033°00'0 0.0
2017-Sep-24 12:28N 68°57' E 033°00'0 0.0
2017-Sep-24 11:57N 68°57' E 033°00'0 0.0
2017-Sep-24 11:29N 68°57' E 033°00'0 0.0
2017-Sep-24 10:58N 68°57' E 033°00'0 0.0
2017-Sep-24 10:29N 68°57' E 033°00'0 0.0
2017-Sep-24 09:59N 68°57' E 033°00'0 0.0
2017-Sep-24 09:29N 68°57' E 033°00'0 0.0
2017-Sep-24 09:00N 68°57' E 033°00'0 0.0
2017-Sep-24 08:27N 68°57' E 033°00'0 0.0
2017-Sep-24 07:58N 68°57' E 033°00'0 0.0
2017-Sep-24 07:28N 68°57' E 033°00'0 0.0
2017-Sep-24 06:55N 68°57' E 033°00'0 0.0
2017-Sep-24 06:28N 68°57' E 033°00'0 0.0
2017-Sep-24 05:58N 68°57' E 033°00'0 0.0
2017-Sep-24 05:28N 68°57' E 033°00'0 0.0
2017-Sep-24 05:00N 68°57' E 033°00'0 0.0
2017-Sep-24 04:29N 68°57' E 033°00'0 0.0
2017-Sep-24 03:59N 68°57' E 033°00'0 0.0
2017-Sep-24 03:29N 68°57' E 033°00'0 0.0
2017-Sep-24 03:00N 68°57' E 033°00'0 0.0
2017-Sep-24 02:29N 68°57' E 033°00'0 0.0
2017-Sep-24 02:00N 68°57' E 033°00'0 0.0
2017-Sep-24 01:30N 68°57' E 033°00'0 0.0
2017-Sep-24 00:58N 68°57' E 033°00'0 0.0
2017-Sep-24 00:30N 68°57' E 033°00'0 0.0
2017-Sep-24 00:00N 68°57' E 033°00'0 0.0
2017-Sep-23 23:29N 68°57' E 033°00'0 0.0
2017-Sep-23 22:59N 68°57' E 033°00'0 0.0
2017-Sep-23 22:26N 68°57' E 033°00'0 0.0
2017-Sep-23 22:00N 68°57' E 033°00'0 0.0
2017-Sep-23 21:28N 68°57' E 033°00'0 0.0
2017-Sep-23 20:57N 68°57' E 033°00'0 0.0
2017-Sep-23 20:30N 68°57' E 033°00'0 0.0
2017-Sep-23 19:55N 68°57' E 033°00'4 0.1
2017-Sep-22 01:59N 69°01' E 033°04'0 0.0
2017-Sep-22 01:26N 69°01' E 033°04'0 0.0
2017-Sep-22 00:54N 69°01' E 033°04'0 0.0
2017-Sep-22 00:29N 69°01' E 033°04'0 0.0
2017-Sep-21 23:58N 69°01' E 033°04'0 0.0
2017-Sep-21 23:30N 69°01' E 033°04'0 0.0
2017-Sep-21 23:00N 69°01' E 033°04'0 0.0
2017-Sep-21 22:30N 69°01' E 033°04'0 0.0
2017-Sep-21 22:00N 69°01' E 033°04'0 0.0
2017-Sep-21 21:29N 69°01' E 033°04'0 0.0
2017-Sep-21 20:59N 69°01' E 033°04'0 0.0
2017-Sep-21 20:28N 69°01' E 033°04'0 0.0
2017-Sep-21 19:58N 69°01' E 033°04'0 0.0
2017-Sep-21 19:27N 69°01' E 033°04'0 0.0
2017-Sep-21 18:59N 69°01' E 033°04'0 0.0
2017-Sep-21 18:23N 69°01' E 033°04'0 0.0
2017-Sep-21 18:00N 69°01' E 033°04'0 0.0
2017-Sep-21 17:28N 69°01' E 033°04'0 0.0
2017-Sep-21 17:00N 69°01' E 033°04'0 0.0
2017-Sep-21 16:25N 69°01' E 033°04'0 0.0
2017-Sep-21 15:59N 69°01' E 033°04'0 0.0
2017-Sep-21 15:28N 69°01' E 033°04'0 0.0
2017-Sep-21 14:58N 69°01' E 033°04'0 0.0
2017-Sep-21 14:28N 69°01' E 033°04'0 0.0
2017-Sep-21 13:58N 69°01' E 033°04'0 0.0
2017-Sep-21 13:28N 69°01' E 033°04'0 0.0
2017-Sep-21 13:00N 69°01' E 033°04'0 0.0
2017-Sep-21 12:28N 69°01' E 033°04'0 0.0
2017-Sep-21 11:59N 69°01' E 033°04'0 0.0
2017-Sep-21 11:30N 69°01' E 033°04'0 0.0
2017-Sep-21 10:56N 69°01' E 033°04'0 0.0
2017-Sep-21 10:30N 69°01' E 033°04'0 0.0
2017-Sep-21 10:00N 69°01' E 033°04'0 0.0
2017-Sep-21 09:31N 69°01' E 033°04'2 3.3
2017-Sep-21 09:01N 68°59' E 033°02'1 2.8
2017-Sep-21 08:30N 68°58' E 033°01'0 0.0
2017-Sep-21 08:00N 68°58' E 033°01'0 0.1
2017-Sep-21 07:27N 68°58' E 033°01'0 0.0
2017-Sep-21 06:56N 68°58' E 033°01'0 0.0
2017-Sep-21 06:30N 68°58' E 033°01'0 0.0
2017-Sep-21 06:00N 68°58' E 033°01'1 2.4
2017-Sep-21 05:29N 68°59' E 033°02'3 6.0
2017-Sep-21 04:59N 69°02' E 033°03'  
Track history (hours):
 
Tides and Currents Weather Stations Pressure Air Temp Water Temp Dewpoint Dewpoint Depression Visibility Wind Speed Wind Dir Waves Ship Positions

Kapitan Rogozin

Last reported at 2017-Sep-27 01:27 UTC. Time now 2017-Oct-17 13:15 UTC.
Position N 70°10' E 032°02'.
Warning: this ship's position is 20 days out of date.

Length 55 m; draft 4.1 m.

Type: Fishing. MMSI: 273510600.

Date/timePositionNaut miles runAvg speedWind from/ knotsBaromVisibWave heightAir tempDewpointWater temp
2017-Sep-27 01:27N 70°10' E 032°02'1 1.5
2017-Sep-27 00:58N 70°10' E 031°59'2 5.2
2017-Sep-27 00:30N 70°10' E 031°52'3 6.4
2017-Sep-27 00:00N 70°09' E 031°43'4 6.9
2017-Sep-26 23:30N 70°08' E 031°33'4 7.4
2017-Sep-26 22:59N 70°07' E 031°23'4 7.6
2017-Sep-26 22:30N 70°05' E 031°14'4 7.6
2017-Sep-26 22:00N 70°03' E 031°04'4 7.4
2017-Sep-26 21:30N 70°01' E 030°54'4 7.6
2017-Sep-26 21:00N 69°60' E 030°44'4 8.0
2017-Sep-26 20:30N 69°58' E 030°34'4 8.7
2017-Sep-26 20:00N 69°56' E 030°23'4 9.1
2017-Sep-26 19:30N 69°54' E 030°11'5 9.2
2017-Sep-26 19:00N 69°49' E 030°07'5 9.6
2017-Sep-26 18:30N 69°45' E 030°04'1 1.9
2017-Sep-26 17:59N 69°44' E 030°04'0 0.0
2017-Sep-26 17:28N 69°44' E 030°04'0 0.0
2017-Sep-26 16:58N 69°44' E 030°04'0 0.0
2017-Sep-26 16:25N 69°44' E 030°04'0 0.0
2017-Sep-26 15:58N 69°44' E 030°04'0 0.0
2017-Sep-26 15:30N 69°44' E 030°04'0 0.0
2017-Sep-26 14:59N 69°44' E 030°04'0 0.0
2017-Sep-26 14:30N 69°44' E 030°04'0 0.0
2017-Sep-26 14:00N 69°44' E 030°04'0 0.0
2017-Sep-26 13:30N 69°44' E 030°04'0 0.0
2017-Sep-26 13:00N 69°44' E 030°04'0 0.0
2017-Sep-26 12:30N 69°44' E 030°04'1 1.5
2017-Sep-26 12:00N 69°44' E 030°06'4 8.7
2017-Sep-26 11:30N 69°49' E 030°06'4 8.9
2017-Sep-26 11:00N 69°53' E 030°08'3 6.4
2017-Sep-26 10:30N 69°54' E 030°16'5 9.1
2017-Sep-26 10:00N 69°55' E 030°29'5 9.2
2017-Sep-26 09:30N 69°57' E 030°42'4 9.0
2017-Sep-26 09:00N 69°58' E 030°55'5 9.3
2017-Sep-26 08:30N 69°59' E 031°08'510.1
2017-Sep-26 08:00N 69°59' E 031°23'67 6.9
2017-Sep-25 22:20N 69°03' E 033°04'2 6.2
2017-Sep-25 22:00N 69°01' E 033°03'3 6.1
2017-Sep-25 21:31N 68°58' E 033°02'1 2.4
2017-Sep-25 20:59N 68°57' E 033°01'0 0.1
2017-Sep-25 20:30N 68°57' E 033°01'0 0.0
2017-Sep-25 19:58N 68°57' E 033°01'0 0.0
2017-Sep-25 19:30N 68°57' E 033°01'0 0.0
2017-Sep-25 18:58N 68°57' E 033°01'0 0.0
2017-Sep-25 18:26N 68°57' E 033°01'0 0.0
2017-Sep-25 17:58N 68°57' E 033°01'0 0.0
2017-Sep-25 17:30N 68°57' E 033°01'0 0.1
2017-Sep-25 16:58N 68°57' E 033°01'0 0.0
2017-Sep-25 16:26N 68°57' E 033°01'0 0.0
2017-Sep-25 15:59N 68°57' E 033°01'0 0.0
2017-Sep-25 15:29N 68°57' E 033°01'1 1.1
2017-Sep-25 14:59N 68°57' E 033°00'0 0.0
2017-Sep-25 14:27N 68°57' E 033°00'0 0.0
2017-Sep-25 13:55N 68°57' E 033°00'0 0.0
2017-Sep-25 13:30N 68°57' E 033°00'0 0.0
2017-Sep-25 12:57N 68°57' E 033°00'0 0.0
2017-Sep-25 12:28N 68°57' E 033°00'0 0.0
2017-Sep-25 11:58N 68°57' E 033°00'0 0.0
2017-Sep-25 11:30N 68°57' E 033°00'0 0.0
2017-Sep-25 10:58N 68°57' E 033°00'0 0.0
2017-Sep-25 10:28N 68°57' E 033°00'0 0.0
2017-Sep-25 09:54N 68°57' E 033°00'0 0.0
2017-Sep-25 09:28N 68°57' E 033°00'0 0.0
2017-Sep-25 08:59N 68°57' E 033°00'0 0.0
2017-Sep-25 08:29N 68°57' E 033°00'0 0.0
2017-Sep-25 07:58N 68°57' E 033°00'0 0.0
2017-Sep-25 07:26N 68°57' E 033°00'0 0.0
2017-Sep-25 07:00N 68°57' E 033°00'0 0.0
2017-Sep-25 06:30N 68°57' E 033°00'0 0.0
2017-Sep-25 05:57N 68°57' E 033°00'0 0.0
2017-Sep-25 05:30N 68°57' E 033°00'0 0.0
2017-Sep-25 04:59N 68°57' E 033°00'0 0.0
2017-Sep-25 04:28N 68°57' E 033°00'0 0.0
2017-Sep-25 03:58N 68°57' E 033°00'0 0.0
2017-Sep-25 03:30N 68°57' E 033°00'0 0.0
2017-Sep-25 02:58N 68°57' E 033°00'0 0.0
2017-Sep-25 02:31N 68°57' E 033°00'0 0.0
2017-Sep-25 01:59N 68°57' E 033°00'0 0.0
2017-Sep-25 01:24N 68°57' E 033°00'0 0.0
2017-Sep-25 01:01N 68°57' E 033°00'0 0.0
2017-Sep-25 00:30N 68°57' E 033°00'0 0.0
2017-Sep-25 00:00N 68°57' E 033°00'0 0.0
2017-Sep-24 23:22N 68°57' E 033°00'0 0.0
2017-Sep-24 22:59N 68°57' E 033°00'0 0.0
2017-Sep-24 22:28N 68°57' E 033°00'0 0.0
2017-Sep-24 21:59N 68°57' E 033°00'0 0.0
2017-Sep-24 21:24N 68°57' E 033°00'0 0.0
2017-Sep-24 21:00N 68°57' E 033°00'0 0.0
2017-Sep-24 20:22N 68°57' E 033°00'0 0.0
2017-Sep-24 19:58N 68°57' E 033°00'0 0.0
2017-Sep-24 19:29N 68°57' E 033°00'0 0.0
2017-Sep-24 18:58N 68°57' E 033°00'0 0.0
2017-Sep-24 18:28N 68°57' E 033°00'0 0.0
2017-Sep-24 18:00N 68°57' E 033°00'0 0.0
2017-Sep-24 17:30N 68°57' E 033°00'0 0.0
2017-Sep-24 16:59N 68°57' E 033°00'0 0.0
2017-Sep-24 16:28N 68°57' E 033°00'0 0.0
2017-Sep-24 16:00N 68°57' E 033°00'0 0.0
2017-Sep-24 15:29N 68°57' E 033°00'0 0.0
2017-Sep-24 15:00N 68°57' E 033°00'0 0.0
2017-Sep-24 14:30N 68°57' E 033°00'0 0.0
2017-Sep-24 13:57N 68°57' E 033°00'0 0.0
2017-Sep-24 13:26N 68°57' E 033°00'0 0.0
2017-Sep-24 12:59N 68°57' E 033°00'0 0.0
2017-Sep-24 12:28N 68°57' E 033°00'0 0.0
2017-Sep-24 11:57N 68°57' E 033°00'0 0.0
2017-Sep-24 11:29N 68°57' E 033°00'0 0.0
2017-Sep-24 10:58N 68°57' E 033°00'0 0.0
2017-Sep-24 10:29N 68°57' E 033°00'0 0.0
2017-Sep-24 09:59N 68°57' E 033°00'0 0.0
2017-Sep-24 09:29N 68°57' E 033°00'0 0.0
2017-Sep-24 09:00N 68°57' E 033°00'0 0.0
2017-Sep-24 08:27N 68°57' E 033°00'0 0.0
2017-Sep-24 07:58N 68°57' E 033°00'0 0.0
2017-Sep-24 07:28N 68°57' E 033°00'0 0.0
2017-Sep-24 06:55N 68°57' E 033°00'0 0.0
2017-Sep-24 06:28N 68°57' E 033°00'0 0.0
2017-Sep-24 05:58N 68°57' E 033°00'0 0.0
2017-Sep-24 05:28N 68°57' E 033°00'0 0.0
2017-Sep-24 05:00N 68°57' E 033°00'0 0.0
2017-Sep-24 04:29N 68°57' E 033°00'0 0.0
2017-Sep-24 03:59N 68°57' E 033°00'0 0.0
2017-Sep-24 03:29N 68°57' E 033°00'0 0.0
2017-Sep-24 03:00N 68°57' E 033°00'0 0.0
2017-Sep-24 02:29N 68°57' E 033°00'0 0.0
2017-Sep-24 02:00N 68°57' E 033°00'0 0.0
2017-Sep-24 01:30N 68°57' E 033°00'0 0.0
2017-Sep-24 00:58N 68°57' E 033°00'0 0.0
2017-Sep-24 00:30N 68°57' E 033°00'0 0.0
2017-Sep-24 00:00N 68°57' E 033°00'0 0.0
2017-Sep-23 23:29N 68°57' E 033°00'0 0.0
2017-Sep-23 22:59N 68°57' E 033°00'0 0.0
2017-Sep-23 22:26N 68°57' E 033°00'0 0.0
2017-Sep-23 22:00N 68°57' E 033°00'0 0.0
2017-Sep-23 21:28N 68°57' E 033°00'0 0.0
2017-Sep-23 20:57N 68°57' E 033°00'0 0.0
2017-Sep-23 20:30N 68°57' E 033°00'0 0.0
2017-Sep-23 19:55N 68°57' E 033°00'4 0.1
2017-Sep-22 01:59N 69°01' E 033°04'0 0.0
2017-Sep-22 01:26N 69°01' E 033°04'0 0.0
2017-Sep-22 00:54N 69°01' E 033°04'0 0.0
2017-Sep-22 00:29N 69°01' E 033°04'0 0.0
2017-Sep-21 23:58N 69°01' E 033°04'0 0.0
2017-Sep-21 23:30N 69°01' E 033°04'0 0.0
2017-Sep-21 23:00N 69°01' E 033°04'0 0.0
2017-Sep-21 22:30N 69°01' E 033°04'0 0.0
2017-Sep-21 22:00N 69°01' E 033°04'0 0.0
2017-Sep-21 21:29N 69°01' E 033°04'0 0.0
2017-Sep-21 20:59N 69°01' E 033°04'0 0.0
2017-Sep-21 20:28N 69°01' E 033°04'0 0.0
2017-Sep-21 19:58N 69°01' E 033°04'0 0.0
2017-Sep-21 19:27N 69°01' E 033°04'0 0.0
2017-Sep-21 18:59N 69°01' E 033°04'0 0.0
2017-Sep-21 18:23N 69°01' E 033°04'0 0.0
2017-Sep-21 18:00N 69°01' E 033°04'0 0.0
2017-Sep-21 17:28N 69°01' E 033°04'0 0.0
2017-Sep-21 17:00N 69°01' E 033°04'0 0.0
2017-Sep-21 16:25N 69°01' E 033°04'0 0.0
2017-Sep-21 15:59N 69°01' E 033°04'0 0.0
2017-Sep-21 15:28N 69°01' E 033°04'0 0.0
2017-Sep-21 14:58N 69°01' E 033°04'0 0.0
2017-Sep-21 14:28N 69°01' E 033°04'0 0.0
2017-Sep-21 13:58N 69°01' E 033°04'0 0.0
2017-Sep-21 13:28N 69°01' E 033°04'0 0.0
2017-Sep-21 13:00N 69°01' E 033°04'0 0.0
2017-Sep-21 12:28N 69°01' E 033°04'0 0.0
2017-Sep-21 11:59N 69°01' E 033°04'0 0.0
2017-Sep-21 11:30N 69°01' E 033°04'0 0.0
2017-Sep-21 10:56N 69°01' E 033°04'0 0.0
2017-Sep-21 10:30N 69°01' E 033°04'0 0.0
2017-Sep-21 10:00N 69°01' E 033°04'0 0.0
2017-Sep-21 09:31N 69°01' E 033°04'2 3.3
2017-Sep-21 09:01N 68°59' E 033°02'1 2.8
2017-Sep-21 08:30N 68°58' E 033°01'0 0.0
2017-Sep-21 08:00N 68°58' E 033°01'0 0.1
2017-Sep-21 07:27N 68°58' E 033°01'0 0.0
2017-Sep-21 06:56N 68°58' E 033°01'0 0.0
2017-Sep-21 06:30N 68°58' E 033°01'0 0.0
2017-Sep-21 06:00N 68°58' E 033°01'1 2.4
2017-Sep-21 05:29N 68°59' E 033°02'3 6.0
2017-Sep-21 04:59N 69°02' E 033°03'  

Dump ship's entire track history